Time;durP1;ratioP1;P1;durP2;ratioP2;P2;SDS_P1;SDS_P2;PMS_P1;PMS_P2;Temp;Humidity;BMP_temperature;BMP_pressure;BME280_temperature;BME280_humidity;BME280_pressure;Samples;Min_cycle;Max_cycle;Signal;HPM_P1;HPM_P2
2022/05/20 00:00:23;;;;;;;;;;;11.40;99.90;;;;;;5109112;28;19920;-79
2022/05/20 00:02:48;;;;;;;;;;;11.30;99.90;;;;;;5105549;27;19959;-78
2022/05/20 00:05:14;;;;;;;;;;;11.30;99.90;;;;;;5112077;28;19985;-78
2022/05/20 00:07:40;;;;;;;;;;;11.30;99.90;;;;;;5114552;28;20358;-79
2022/05/20 00:10:06;;;;;;;;;;;11.30;99.90;;;;;;5115463;28;19915;-79
2022/05/20 00:12:32;;;;;;;;;;;11.30;99.90;;;;;;5115610;28;19916;-78
2022/05/20 00:14:57;;;;;;;;;;;11.20;99.90;;;;;;5150013;27;20064;-78
2022/05/20 00:17:23;;;;;;;;;;;11.20;99.90;;;;;;5105077;27;19920;-78
2022/05/20 00:19:48;;;;;;;;;;;11.30;99.90;;;;;;5113552;28;19911;-79
2022/05/20 00:22:14;;;;;;;;;;;11.40;99.90;;;;;;5115467;28;19915;-78
2022/05/20 00:25:45;;;;;;;;;;;11.30;99.90;;;;;;5136593;27;19912;-78
2022/05/20 00:27:25;;;;;;;;;;;11.40;99.90;;;;;;5096183;28;19958;-78
2022/05/20 00:29:50;;;;;;;;;;;11.30;99.90;;;;;;5114648;28;19951;-78
2022/05/20 00:32:16;;;;;;;;;;;11.30;99.90;;;;;;5115113;28;19912;-79
2022/05/20 00:34:41;;;;;;;;;;;11.30;99.90;;;;;;5116457;28;19934;-80
2022/05/20 00:37:07;;;;;;;;;;;11.30;99.90;;;;;;5116347;28;19921;-78
2022/05/20 00:39:32;;;;;;;;;;;11.40;99.90;;;;;;5115852;28;19923;-78
2022/05/20 00:41:58;;;;;;;;;;;11.50;99.90;;;;;;5106503;28;19912;-78
2022/05/20 00:44:23;;;;;;;;;;;11.50;99.90;;;;;;5095867;28;19908;-78
2022/05/20 00:46:49;;;;;;;;;;;11.40;99.90;;;;;;5095867;28;19946;-78
2022/05/20 00:49:15;;;;;;;;;;;11.40;99.90;;;;;;5131898;27;19934;-78
2022/05/20 00:51:47;;;;;;;;;;;11.30;99.90;;;;;;5114157;28;20385;-78
2022/05/20 00:54:15;;;;;;;;;;;11.30;99.90;;;;;;5094598;28;19916;-78
2022/05/20 00:56:43;;;;;;;;;;;11.30;99.90;;;;;;5097442;28;19912;-77
2022/05/20 00:59:12;;;;;;;;;;;11.10;99.90;;;;;;5116177;28;19908;-79
2022/05/20 01:01:37;;;;;;;;;;;11.10;99.90;;;;;;5115197;28;19911;-79
2022/05/20 01:04:03;;;;;;;;;;;11.00;99.90;;;;;;5115497;28;19922;-78
2022/05/20 01:06:29;;;;;;;;;;;11.00;99.90;;;;;;5114957;28;20211;-78
2022/05/20 01:08:54;;;;;;;;;;;11.00;99.90;;;;;;5113686;28;19911;-77
2022/05/20 01:11:20;;;;;;;;;;;10.90;99.90;;;;;;5115184;28;19957;-77
2022/05/20 01:13:48;;;;;;;;;;;10.90;99.90;;;;;;5136556;27;19923;-76
2022/05/20 01:16:13;;;;;;;;;;;11.00;99.90;;;;;;5101326;28;19916;-76
2022/05/20 01:18:41;;;;;;;;;;;11.00;99.90;;;;;;5109326;28;20302;-77
2022/05/20 01:21:07;;;;;;;;;;;11.10;99.90;;;;;;5115027;28;20216;-78
2022/05/20 01:23:34;;;;;;;;;;;11.20;99.90;;;;;;5113076;28;19919;-76
2022/05/20 01:25:59;;;;;;;;;;;11.20;99.90;;;;;;5101906;28;19911;-77
2022/05/20 01:28:27;;;;;;;;;;;11.20;99.90;;;;;;5114883;28;19915;-76
2022/05/20 01:30:55;;;;;;;;;;;11.30;99.90;;;;;;5115205;28;20111;-76
2022/05/20 01:33:47;;;;;;;;;;;11.30;99.90;;;;;;5114660;28;19918;-77
2022/05/20 01:36:14;;;;;;;;;;;11.40;99.90;;;;;;5094494;28;19913;-78
2022/05/20 01:38:40;;;;;;;;;;;11.40;99.90;;;;;;5095185;28;19928;-78
2022/05/20 01:41:14;;;;;;;;;;;11.40;99.90;;;;;;5113640;28;19920;-78
2022/05/20 01:43:44;;;;;;;;;;;11.40;99.90;;;;;;5115759;28;19908;-77
2022/05/20 01:46:10;;;;;;;;;;;11.40;99.90;;;;;;5103676;28;20007;-77
2022/05/20 01:48:38;;;;;;;;;;;11.40;99.90;;;;;;5107195;28;20002;-77
2022/05/20 01:51:08;;;;;;;;;;;11.30;99.90;;;;;;5112611;28;20318;-77
2022/05/20 01:53:46;;;;;;;;;;;11.30;99.90;;;;;;5114487;28;19965;-76
2022/05/20 01:56:21;;;;;;;;;;;11.20;99.90;;;;;;5113633;28;19912;-76
2022/05/20 01:58:55;;;;;;;;;;;11.10;99.90;;;;;;5115128;28;19958;-76
2022/05/20 02:01:24;;;;;;;;;;;11.00;99.90;;;;;;5114768;28;19998;-77
2022/05/20 02:03:53;;;;;;;;;;;10.90;99.90;;;;;;5114580;28;20195;-77
2022/05/20 02:06:21;;;;;;;;;;;10.80;99.90;;;;;;5113379;28;19911;-77
2022/05/20 02:08:51;;;;;;;;;;;10.90;99.90;;;;;;5114570;28;19916;-77
2022/05/20 02:11:28;;;;;;;;;;;10.90;99.90;;;;;;5096516;28;19916;-76
2022/05/20 02:14:05;;;;;;;;;;;10.90;99.90;;;;;;5111338;28;19918;-77
2022/05/20 02:16:32;;;;;;;;;;;10.90;99.90;;;;;;5118194;28;19911;-77
2022/05/20 02:19:07;;;;;;;;;;;10.90;99.90;;;;;;5116317;27;20234;-77
2022/05/20 02:21:33;;;;;;;;;;;10.90;99.90;;;;;;5118726;28;19912;-76
2022/05/20 02:24:02;;;;;;;;;;;10.70;99.90;;;;;;5117333;28;20044;-78
2022/05/20 02:26:30;;;;;;;;;;;10.60;99.90;;;;;;5101427;28;19912;-77
2022/05/20 02:29:03;;;;;;;;;;;10.60;99.90;;;;;;5117937;28;19916;-77
2022/05/20 02:31:55;;;;;;;;;;;10.60;99.90;;;;;;5113849;27;19912;-77
2022/05/20 02:34:21;;;;;;;;;;;10.70;99.90;;;;;;5054864;28;20007;-77
2022/05/20 02:36:46;;;;;;;;;;;10.70;99.90;;;;;;5055400;28;20011;-77
2022/05/20 02:39:15;;;;;;;;;;;10.70;99.90;;;;;;5054130;28;19921;-77
2022/05/20 02:41:45;;;;;;;;;;;10.70;99.90;;;;;;5055703;28;19919;-77
2022/05/20 02:44:10;;;;;;;;;;;10.70;99.90;;;;;;5055088;28;19967;-77
2022/05/20 02:46:37;;;;;;;;;;;10.70;99.90;;;;;;5055520;28;20347;-77
2022/05/20 02:49:02;;;;;;;;;;;10.70;99.90;;;;;;5034130;28;19913;-76
2022/05/20 02:51:28;;;;;;;;;;;10.70;99.90;;;;;;5054572;28;19913;-77
2022/05/20 02:53:53;;;;;;;;;;;10.70;99.90;;;;;;5055574;28;19915;-77
2022/05/20 02:56:19;;;;;;;;;;;10.70;99.90;;;;;;5053569;28;19995;-76
2022/05/20 03:04:13;;;;;;;;;;;10.60;99.90;;;;;;5055755;28;19946;-76
2022/05/20 03:06:40;;;;;;;;;;;10.60;99.90;;;;;;5054408;28;20007;-77
2022/05/20 03:09:07;;;;;;;;;;;10.60;99.90;;;;;;5055170;28;19924;-77
2022/05/20 03:11:39;;;;;;;;;;;10.40;99.90;;;;;;5077305;28;20215;-76
2022/05/20 03:14:05;;;;;;;;;;;10.40;99.90;;;;;;5097421;28;20308;-76
2022/05/20 03:16:31;;;;;;;;;;;10.30;99.90;;;;;;5115635;28;19916;-77
2022/05/20 03:18:58;;;;;;;;;;;10.40;99.90;;;;;;5103832;28;19922;-76
2022/05/20 03:21:24;;;;;;;;;;;10.40;99.90;;;;;;5117189;28;20332;-77
2022/05/20 03:23:49;;;;;;;;;;;10.50;99.90;;;;;;5117205;28;19994;-77
2022/05/20 03:26:17;;;;;;;;;;;10.50;99.90;;;;;;5116415;28;19908;-77
2022/05/20 03:28:43;;;;;;;;;;;10.50;99.90;;;;;;5114766;28;19912;-77
2022/05/20 03:31:09;;;;;;;;;;;10.40;99.90;;;;;;5109247;28;19911;-77
2022/05/20 03:33:36;;;;;;;;;;;10.30;99.90;;;;;;5142083;27;19922;-77
2022/05/20 03:36:02;;;;;;;;;;;10.20;99.90;;;;;;5116305;28;19915;-76
2022/05/20 03:38:27;;;;;;;;;;;10.20;99.90;;;;;;5116145;27;19980;-76
2022/05/20 03:40:53;;;;;;;;;;;10.00;99.90;;;;;;5116376;28;19920;-77
2022/05/20 03:43:18;;;;;;;;;;;9.80;99.90;;;;;;5117223;28;19908;-77
2022/05/20 03:45:44;;;;;;;;;;;9.80;99.90;;;;;;5114438;28;19912;-77
2022/05/20 03:48:10;;;;;;;;;;;9.70;99.90;;;;;;5115734;28;19937;-76
2022/05/20 03:50:36;;;;;;;;;;;9.70;99.90;;;;;;5116063;28;20305;-77
2022/05/20 03:53:02;;;;;;;;;;;9.80;99.90;;;;;;5115017;28;19916;-76
2022/05/20 03:55:27;;;;;;;;;;;9.80;99.90;;;;;;5117444;28;19908;-76
2022/05/20 03:57:53;;;;;;;;;;;9.80;99.90;;;;;;5115034;28;19924;-76
2022/05/20 04:00:19;;;;;;;;;;;9.80;99.90;;;;;;5116961;28;20236;-77
2022/05/20 04:02:44;;;;;;;;;;;9.80;99.90;;;;;;5116255;28;20345;-77
2022/05/20 04:05:10;;;;;;;;;;;9.90;99.90;;;;;;5116691;28;19907;-77
2022/05/20 04:07:36;;;;;;;;;;;10.00;99.90;;;;;;5116865;28;19919;-77
2022/05/20 04:10:02;;;;;;;;;;;10.20;99.90;;;;;;5114989;27;19961;-76
2022/05/20 04:12:31;;;;;;;;;;;10.30;99.90;;;;;;5116701;28;19908;-78
2022/05/20 04:14:57;;;;;;;;;;;10.50;99.90;;;;;;5102821;28;19916;-77
2022/05/20 04:17:22;;;;;;;;;;;10.60;99.90;;;;;;5102665;28;19916;-77
2022/05/20 04:19:48;;;;;;;;;;;10.80;99.90;;;;;;5099095;28;20027;-77
2022/05/20 04:22:16;;;;;;;;;;;10.90;99.90;;;;;;5096432;28;19908;-77
2022/05/20 04:24:41;;;;;;;;;;;11.00;99.90;;;;;;5101897;27;19920;-76
2022/05/20 04:27:07;;;;;;;;;;;11.00;99.90;;;;;;5104478;28;19919;-76
2022/05/20 04:29:34;;;;;;;;;;;11.20;99.90;;;;;;5106991;28;20306;-76
2022/05/20 04:32:00;;;;;;;;;;;11.30;99.90;;;;;;5095984;28;20570;-76
2022/05/20 04:34:26;;;;;;;;;;;11.40;99.90;;;;;;5106851;28;19912;-77
2022/05/20 04:36:51;;;;;;;;;;;11.60;99.90;;;;;;5115118;28;19912;-77
2022/05/20 04:39:17;;;;;;;;;;;11.60;99.90;;;;;;5110878;28;19920;-77
2022/05/20 04:47:15;;;;;;;;;;;11.90;99.90;;;;;;5114197;28;19915;-76
2022/05/20 04:49:42;;;;;;;;;;;11.90;99.90;;;;;;5115123;28;20041;-77
2022/05/20 04:52:08;;;;;;;;;;;12.10;99.90;;;;;;5137049;27;19908;-77
2022/05/20 04:54:51;;;;;;;;;;;12.20;99.90;;;;;;5114325;27;20259;-77
2022/05/20 04:57:21;;;;;;;;;;;12.30;99.90;;;;;;5113536;28;19919;-77
2022/05/20 04:59:47;;;;;;;;;;;12.30;99.90;;;;;;5112664;28;19912;-76
2022/05/20 05:02:13;;;;;;;;;;;12.30;99.90;;;;;;5111128;28;19911;-77
2022/05/20 05:04:38;;;;;;;;;;;12.20;99.90;;;;;;5107107;28;19919;-76
2022/05/20 05:07:09;;;;;;;;;;;12.20;99.90;;;;;;5111995;28;19919;-76
2022/05/20 05:09:34;;;;;;;;;;;12.40;99.90;;;;;;5100666;28;19919;-76
2022/05/20 05:12:00;;;;;;;;;;;12.40;99.90;;;;;;5112408;28;20233;-76
2022/05/20 05:14:25;;;;;;;;;;;12.50;99.90;;;;;;5110595;28;19937;-76
2022/05/20 05:16:51;;;;;;;;;;;12.60;99.90;;;;;;5114603;28;20044;-76
2022/05/20 05:19:20;;;;;;;;;;;12.70;99.90;;;;;;5112641;28;19998;-76
2022/05/20 05:21:45;;;;;;;;;;;12.70;99.90;;;;;;5111238;28;20416;-76
2022/05/20 05:24:11;;;;;;;;;;;12.80;99.90;;;;;;5109962;28;19912;-76
2022/05/20 05:26:36;;;;;;;;;;;12.80;99.90;;;;;;5113828;28;19924;-76
2022/05/20 05:29:03;;;;;;;;;;;12.90;99.90;;;;;;5105678;28;19908;-77
2022/05/20 05:31:29;;;;;;;;;;;12.90;99.90;;;;;;5105876;28;20002;-76
2022/05/20 05:33:54;;;;;;;;;;;13.00;99.90;;;;;;5106363;28;19908;-77
2022/05/20 05:36:20;;;;;;;;;;;13.00;99.90;;;;;;5113066;28;20316;-76
2022/05/20 05:38:46;;;;;;;;;;;13.00;99.90;;;;;;5114869;28;19923;-76
2022/05/20 05:41:12;;;;;;;;;;;13.00;99.90;;;;;;5113759;28;20311;-76
2022/05/20 05:43:38;;;;;;;;;;;13.00;99.90;;;;;;5110697;28;19934;-76
2022/05/20 05:46:04;;;;;;;;;;;13.00;99.90;;;;;;5095678;28;19927;-79
2022/05/20 05:48:30;;;;;;;;;;;13.00;99.90;;;;;;5111793;28;19912;-77
2022/05/20 05:50:55;;;;;;;;;;;13.00;99.90;;;;;;5118102;28;19907;-76
2022/05/20 05:53:22;;;;;;;;;;;13.10;99.90;;;;;;5119516;28;19912;-76
2022/05/20 05:55:49;;;;;;;;;;;13.20;99.90;;;;;;5119542;28;19915;-76
2022/05/20 05:58:15;;;;;;;;;;;13.20;99.90;;;;;;5119540;28;19912;-77
2022/05/20 06:00:43;;;;;;;;;;;13.20;99.90;;;;;;5118298;28;20302;-78
2022/05/20 06:03:09;;;;;;;;;;;13.30;99.90;;;;;;5114640;28;19912;-77
2022/05/20 06:05:35;;;;;;;;;;;13.30;99.90;;;;;;5110385;28;19926;-76
2022/05/20 06:08:01;;;;;;;;;;;13.40;99.90;;;;;;5117965;28;19912;-77
2022/05/20 06:10:27;;;;;;;;;;;13.40;99.90;;;;;;5109228;28;19922;-77
2022/05/20 06:12:55;;;;;;;;;;;13.40;99.90;;;;;;5117250;28;19967;-78
2022/05/20 06:15:22;;;;;;;;;;;13.40;99.90;;;;;;5108856;28;20325;-78
2022/05/20 06:17:48;;;;;;;;;;;13.50;99.90;;;;;;5110505;28;19915;-76
2022/05/20 06:20:14;;;;;;;;;;;13.60;99.90;;;;;;5115966;28;20317;-77
2022/05/20 06:22:41;;;;;;;;;;;13.80;99.90;;;;;;5117202;28;20019;-78
2022/05/20 06:25:07;;;;;;;;;;;13.80;99.90;;;;;;5110449;28;19961;-77
2022/05/20 06:27:33;;;;;;;;;;;13.90;99.90;;;;;;5116114;28;19995;-78
2022/05/20 06:29:58;;;;;;;;;;;14.00;99.90;;;;;;5117227;28;20321;-78
2022/05/20 06:32:24;;;;;;;;;;;14.00;99.90;;;;;;5116346;28;19919;-78
2022/05/20 06:40:19;;;;;;;;;;;14.20;99.90;;;;;;5116981;28;19969;-77
2022/05/20 06:42:45;;;;;;;;;;;14.30;99.90;;;;;;5110308;28;19994;-78
2022/05/20 06:45:11;;;;;;;;;;;14.40;99.90;;;;;;5108934;28;19919;-77
2022/05/20 06:47:37;;;;;;;;;;;14.50;99.90;;;;;;5107177;28;19923;-78
2022/05/20 06:50:03;;;;;;;;;;;14.60;99.90;;;;;;5116966;28;19916;-78
2022/05/20 06:52:29;;;;;;;;;;;14.70;99.90;;;;;;5109478;28;20313;-78
2022/05/20 06:54:55;;;;;;;;;;;14.80;99.90;;;;;;5116508;28;19916;-79
2022/05/20 06:57:21;;;;;;;;;;;14.70;99.90;;;;;;5107364;28;19916;-76
2022/05/20 06:59:47;;;;;;;;;;;14.80;99.90;;;;;;5113188;27;19915;-78
2022/05/20 07:02:12;;;;;;;;;;;14.80;99.90;;;;;;5115114;28;19934;-77
2022/05/20 07:04:38;;;;;;;;;;;15.00;99.90;;;;;;5111002;28;19912;-78
2022/05/20 07:07:05;;;;;;;;;;;15.10;99.90;;;;;;5109013;28;19912;-77
2022/05/20 07:09:31;;;;;;;;;;;15.20;99.90;;;;;;5113096;28;20010;-79
2022/05/20 07:11:56;;;;;;;;;;;15.20;99.90;;;;;;5114082;28;20006;-77
2022/05/20 07:14:22;;;;;;;;;;;15.30;99.90;;;;;;5110233;28;19919;-79
2022/05/20 07:16:48;;;;;;;;;;;15.30;99.90;;;;;;5109500;28;19923;-76
2022/05/20 07:19:13;;;;;;;;;;;15.40;99.90;;;;;;5109907;28;20284;-78
2022/05/20 07:21:39;;;;;;;;;;;15.40;99.90;;;;;;5103873;28;19949;-77
2022/05/20 07:24:05;;;;;;;;;;;15.50;99.90;;;;;;5111661;28;19916;-78
2022/05/20 07:26:31;;;;;;;;;;;15.50;99.90;;;;;;5106252;28;20649;-78
2022/05/20 07:28:56;;;;;;;;;;;15.50;99.90;;;;;;5109308;28;19916;-77
2022/05/20 07:31:24;;;;;;;;;;;15.70;99.90;;;;;;5111531;28;19912;-77
2022/05/20 07:33:50;;;;;;;;;;;15.90;99.90;;;;;;5114051;28;19994;-79
2022/05/20 07:36:15;;;;;;;;;;;16.10;99.90;;;;;;5112396;27;19911;-78
2022/05/20 07:38:41;;;;;;;;;;;16.30;99.90;;;;;;5138164;27;19949;-79
2022/05/20 07:41:06;;;;;;;;;;;16.40;99.90;;;;;;5111784;28;19912;-78
2022/05/20 07:43:32;;;;;;;;;;;16.60;99.90;;;;;;5114702;28;19911;-80
2022/05/20 07:45:58;;;;;;;;;;;16.70;99.90;;;;;;5114475;28;19926;-77
2022/05/20 07:48:24;;;;;;;;;;;17.00;99.90;;;;;;5112419;28;19923;-79
2022/05/20 07:51:10;;;;;;;;;;;17.20;99.90;;;;;;5111389;28;19919;-80
2022/05/20 07:53:39;;;;;;;;;;;17.50;99.90;;;;;;5112074;28;19919;-78
2022/05/20 07:56:13;;;;;;;;;;;17.80;99.90;;;;;;5110570;28;20307;-78
2022/05/20 07:58:47;;;;;;;;;;;18.10;99.90;;;;;;5113515;28;20259;-78
2022/05/20 08:01:13;;;;;;;;;;;18.50;99.90;;;;;;5113043;28;20294;-79
2022/05/20 08:06:24;;;;;;;;;;;18.70;99.90;;;;;;5114775;28;19984;-79
2022/05/20 08:08:50;;;;;;;;;;;19.10;99.90;;;;;;5114378;28;19920;-78
2022/05/20 08:11:15;;;;;;;;;;;19.30;99.90;;;;;;5113523;28;19916;-77
2022/05/20 08:13:42;;;;;;;;;;;19.10;99.90;;;;;;5114499;28;19943;-77
2022/05/20 08:16:07;;;;;;;;;;;18.90;99.90;;;;;;5111401;28;19974;-78
2022/05/20 08:18:33;;;;;;;;;;;19.00;99.90;;;;;;5107753;28;19924;-78
2022/05/20 08:20:59;;;;;;;;;;;19.40;99.90;;;;;;5111906;28;20325;-78
2022/05/20 08:23:25;;;;;;;;;;;19.50;99.90;;;;;;5113515;28;19912;-78
2022/05/20 08:25:50;;;;;;;;;;;19.50;99.90;;;;;;5112210;28;20015;-77
2022/05/20 08:28:17;;;;;;;;;;;19.30;99.90;;;;;;5114133;28;19916;-78
2022/05/20 08:30:42;;;;;;;;;;;19.20;99.90;;;;;;5106545;28;19912;-77
2022/05/20 08:33:08;;;;;;;;;;;19.20;99.90;;;;;;5113903;28;20302;-78
2022/05/20 08:35:34;;;;;;;;;;;19.30;99.90;;;;;;5111563;27;19926;-76
2022/05/20 08:38:02;;;;;;;;;;;19.30;99.90;;;;;;5114867;28;19924;-75
2022/05/20 08:40:29;;;;;;;;;;;19.30;99.90;;;;;;5113456;28;20013;-77
2022/05/20 08:42:56;;;;;;;;;;;19.40;99.90;;;;;;5114543;27;19961;-77
2022/05/20 08:45:23;;;;;;;;;;;19.60;99.90;;;;;;5106357;28;20355;-77
2022/05/20 08:47:50;;;;;;;;;;;19.70;99.90;;;;;;5113650;28;19915;-78
2022/05/20 08:50:21;;;;;;;;;;;19.90;99.90;;;;;;5113057;28;19915;-76
2022/05/20 08:52:49;;;;;;;;;;;19.90;99.90;;;;;;5113067;28;19915;-78
2022/05/20 08:55:14;;;;;;;;;;;19.90;99.90;;;;;;5106413;28;19965;-78
2022/05/20 08:57:47;;;;;;;;;;;19.90;99.90;;;;;;5114081;28;19916;-77
2022/05/20 09:00:13;;;;;;;;;;;19.90;99.90;;;;;;5106945;28;19915;-77
2022/05/20 09:02:38;;;;;;;;;;;20.00;99.90;;;;;;5113130;28;19912;-77
2022/05/20 09:05:14;;;;;;;;;;;20.00;99.90;;;;;;5112880;28;19912;-76
2022/05/20 09:07:57;;;;;;;;;;;20.30;99.90;;;;;;5109152;28;19916;-76
2022/05/20 09:10:31;;;;;;;;;;;20.40;99.90;;;;;;5111944;28;19992;-77
2022/05/20 09:13:08;;;;;;;;;;;20.40;99.90;;;;;;5115051;28;19952;-77
2022/05/20 09:15:46;;;;;;;;;;;20.50;99.90;;;;;;5115409;28;19919;-77
2022/05/20 09:18:20;;;;;;;;;;;20.60;99.90;;;;;;5149584;27;19969;-76
2022/05/20 09:20:50;;;;;;;;;;;20.80;99.90;;;;;;5114949;28;19911;-77
2022/05/20 09:23:20;;;;;;;;;;;20.90;99.90;;;;;;5116304;28;19912;-77
2022/05/20 09:25:48;;;;;;;;;;;21.20;99.90;;;;;;5115641;28;20241;-76
2022/05/20 09:28:13;;;;;;;;;;;21.10;99.90;;;;;;5113052;28;19997;-76
2022/05/20 09:30:40;;;;;;;;;;;21.10;99.90;;;;;;5099608;28;19965;-77
2022/05/20 09:33:11;;;;;;;;;;;21.00;99.90;;;;;;5100324;28;19919;-76
2022/05/20 09:35:37;;;;;;;;;;;21.00;99.90;;;;;;5111600;27;20299;-76
2022/05/20 09:38:24;;;;;;;;;;;21.30;99.90;;;;;;5142684;27;19941;-77
2022/05/20 09:40:51;;;;;;;;;;;21.20;99.90;;;;;;5110650;27;19946;-77
2022/05/20 09:43:21;;;;;;;;;;;21.30;99.90;;;;;;5110978;28;19911;-77
2022/05/20 09:45:48;;;;;;;;;;;21.40;99.90;;;;;;5110807;28;19927;-76
2022/05/20 09:48:31;;;;;;;;;;;21.60;99.90;;;;;;5105968;27;20381;-76
2022/05/20 09:51:16;;;;;;;;;;;21.70;99.90;;;;;;5114552;28;19916;-76
2022/05/20 09:53:43;;;;;;;;;;;21.60;99.90;;;;;;5116608;28;19911;-77
2022/05/20 09:56:11;;;;;;;;;;;21.70;99.90;;;;;;5115154;28;19923;-76
2022/05/20 09:58:38;;;;;;;;;;;21.70;99.90;;;;;;5108024;28;20000;-77
2022/05/20 10:01:06;;;;;;;;;;;21.70;99.90;;;;;;5113678;28;19920;-75
2022/05/20 10:03:38;;;;;;;;;;;21.80;99.90;;;;;;5102905;28;19916;-77
2022/05/20 10:06:22;;;;;;;;;;;21.60;99.90;;;;;;5116125;28;19927;-77
2022/05/20 10:08:51;;;;;;;;;;;21.40;99.90;;;;;;5113560;28;19911;-76
2022/05/20 10:11:16;;;;;;;;;;;21.50;99.90;;;;;;5115926;28;19916;-77
2022/05/20 10:14:04;;;;;;;;;;;21.50;99.90;;;;;;5114285;28;19926;-76
2022/05/20 10:16:29;;;;;;;;;;;21.50;99.90;;;;;;5115490;28;19915;-76
2022/05/20 10:18:55;;;;;;;;;;;21.50;99.90;;;;;;5113144;28;20257;-76
2022/05/20 10:21:26;;;;;;;;;;;21.60;99.90;;;;;;5109902;28;19915;-76
2022/05/20 10:24:04;;;;;;;;;;;21.60;99.90;;;;;;5114565;28;19946;-76
2022/05/20 10:26:43;;;;;;;;;;;21.60;99.90;;;;;;5113985;28;19912;-75
2022/05/20 10:32:34;;;;;;;;;;;21.50;99.90;;;;;;5106181;28;20375;-77
2022/05/20 10:35:01;;;;;;;;;;;21.60;99.90;;;;;;5106902;27;19967;-77
2022/05/20 10:37:33;;;;;;;;;;;21.50;99.90;;;;;;5103600;28;19924;-76
2022/05/20 10:39:59;;;;;;;;;;;21.50;99.90;;;;;;5107253;28;20475;-76
2022/05/20 10:42:39;;;;;;;;;;;21.70;99.90;;;;;;5113181;28;19919;-77
2022/05/20 10:48:34;;;;;;;;;;;22.00;99.90;;;;;;5095206;28;19922;-76
2022/05/20 10:51:33;;;;;;;;;;;22.00;99.90;;;;;;5101129;28;19916;-75
2022/05/20 10:54:13;;;;;;;;;;;21.60;99.90;;;;;;5086604;28;19920;-76
2022/05/20 10:56:45;;;;;;;;;;;21.60;99.90;;;;;;5113127;28;20311;-76
2022/05/20 10:59:13;;;;;;;;;;;21.40;99.90;;;;;;5105862;28;19930;-77
2022/05/20 11:01:49;;;;;;;;;;;21.50;99.90;;;;;;5112644;28;19915;-76
2022/05/20 11:04:17;;;;;;;;;;;21.70;99.90;;;;;;5109607;28;20341;-76
2022/05/20 11:07:21;;;;;;;;;;;21.70;99.90;;;;;;5112431;28;19916;-76
2022/05/20 11:09:54;;;;;;;;;;;21.70;99.90;;;;;;5064075;28;20011;-77
2022/05/20 11:12:40;;;;;;;;;;;21.70;99.90;;;;;;5063444;28;19955;-76
2022/05/20 11:15:08;;;;;;;;;;;21.90;99.90;;;;;;5055556;27;20272;-75
2022/05/20 11:17:34;;;;;;;;;;;21.80;99.90;;;;;;5104802;28;19924;-75
2022/05/20 11:19:59;;;;;;;;;;;21.80;99.90;;;;;;5112917;28;19923;-75
2022/05/20 11:22:44;;;;;;;;;;;21.60;99.90;;;;;;5112336;28;19963;-76
2022/05/20 11:25:19;;;;;;;;;;;21.40;99.90;;;;;;5105324;28;19916;-76
2022/05/20 11:27:57;;;;;;;;;;;21.30;99.90;;;;;;5104578;28;20082;-76
2022/05/20 11:30:30;;;;;;;;;;;21.10;99.90;;;;;;5110636;27;21717;-75
2022/05/20 11:33:15;;;;;;;;;;;21.00;99.90;;;;;;5111531;28;19920;-77
2022/05/20 11:35:59;;;;;;;;;;;21.00;99.90;;;;;;5111458;28;20317;-75
2022/05/20 11:38:43;;;;;;;;;;;21.30;99.90;;;;;;5109310;27;20310;-77
2022/05/20 11:41:28;;;;;;;;;;;21.70;99.90;;;;;;5111810;28;19915;-74
2022/05/20 11:43:55;;;;;;;;;;;22.00;99.90;;;;;;5111343;28;20306;-76
2022/05/20 11:46:29;;;;;;;;;;;22.00;99.90;;;;;;5112314;28;19916;-82
2022/05/20 11:49:01;;;;;;;;;;;22.20;99.90;;;;;;5103223;28;19916;-82
2022/05/20 11:51:32;;;;;;;;;;;22.50;99.90;;;;;;5111985;28;19992;-76
2022/05/20 11:54:06;;;;;;;;;;;22.40;99.90;;;;;;5104752;28;20233;-80
2022/05/20 11:56:42;;;;;;;;;;;22.30;99.90;;;;;;5107403;28;19916;-80
2022/05/20 11:59:23;;;;;;;;;;;22.00;99.90;;;;;;5134423;27;19927;-80
2022/05/20 12:01:51;;;;;;;;;;;21.60;99.90;;;;;;5087852;28;19919;-79
2022/05/20 12:04:18;;;;;;;;;;;21.30;99.90;;;;;;5105574;28;19920;-80
2022/05/20 12:06:46;;;;;;;;;;;20.90;99.90;;;;;;5107817;28;19920;-80
2022/05/20 12:09:26;;;;;;;;;;;20.60;99.90;;;;;;5106389;28;19915;-79
2022/05/20 12:12:18;;;;;;;;;;;20.40;99.90;;;;;;5104422;28;19916;-79
2022/05/20 12:15:00;;;;;;;;;;;20.20;99.90;;;;;;5066590;28;19940;-79
2022/05/20 12:17:37;;;;;;;;;;;20.10;99.90;;;;;;5067209;28;19920;-80
2022/05/20 12:26:03;;;;;;;;;;;19.30;99.90;;;;;;5068832;28;19975;-79
2022/05/20 12:28:30;;;;;;;;;;;19.10;99.90;;;;;;5069968;28;19920;-79
2022/05/20 12:31:04;;;;;;;;;;;18.90;99.90;;;;;;5068875;28;19916;-78
2022/05/20 12:33:48;;;;;;;;;;;18.70;99.90;;;;;;5067335;28;20011;-78
2022/05/20 12:36:17;;;;;;;;;;;18.50;99.90;;;;;;5068515;28;19926;-77
2022/05/20 12:38:43;;;;;;;;;;;18.20;99.90;;;;;;5067364;28;19998;-77
2022/05/20 12:41:47;;;;;;;;;;;18.20;99.90;;;;;;5067317;28;19920;-78
2022/05/20 12:44:15;;;;;;;;;;;18.10;99.90;;;;;;4970374;28;19917;-77
2022/05/20 12:46:59;;;;;;;;;;;18.00;99.90;;;;;;4970469;28;20016;-77
2022/05/20 12:49:44;;;;;;;;;;;17.80;99.90;;;;;;4988932;28;19936;-76
2022/05/20 12:52:12;;;;;;;;;;;17.70;99.90;;;;;;5015588;28;20331;-76
2022/05/20 12:54:40;;;;;;;;;;;17.80;99.90;;;;;;5024492;28;19917;-77
2022/05/20 12:57:08;;;;;;;;;;;17.70;99.90;;;;;;5009654;28;20508;-76
2022/05/20 12:59:34;;;;;;;;;;;17.70;99.90;;;;;;5011002;28;19944;-77
2022/05/20 13:02:04;;;;;;;;;;;17.70;99.90;;;;;;5027256;28;19944;-77
2022/05/20 13:04:34;;;;;;;;;;;17.70;99.90;;;;;;5009423;28;20407;-75
2022/05/20 13:07:01;;;;;;;;;;;17.70;99.90;;;;;;5019184;28;19923;-76
2022/05/20 13:09:38;;;;;;;;;;;17.70;99.90;;;;;;5011908;28;19960;-78
2022/05/20 13:12:07;;;;;;;;;;;17.40;99.90;;;;;;5027820;28;19996;-77
2022/05/20 13:14:34;;;;;;;;;;;17.20;99.90;;;;;;5053945;28;20354;-77
2022/05/20 13:17:03;;;;;;;;;;;17.10;99.90;;;;;;5103491;28;19916;-79
2022/05/20 13:19:45;;;;;;;;;;;17.10;99.90;;;;;;5103984;28;20321;-78
2022/05/20 13:22:13;;;;;;;;;;;17.10;99.90;;;;;;5110610;28;20060;-79
2022/05/20 13:24:39;;;;;;;;;;;17.10;99.90;;;;;;5108428;28;19916;-79
2022/05/20 13:27:11;;;;;;;;;;;17.00;99.90;;;;;;5102810;28;20387;-80
2022/05/20 13:29:37;;;;;;;;;;;17.00;99.90;;;;;;5102462;28;19959;-77
2022/05/20 13:32:14;;;;;;;;;;;16.90;99.90;;;;;;5102987;28;19920;-78
2022/05/20 13:34:40;;;;;;;;;;;16.80;99.90;;;;;;5102941;28;19916;-79
2022/05/20 13:37:07;;;;;;;;;;;16.70;99.90;;;;;;5111558;28;19916;-77
2022/05/20 13:39:36;;;;;;;;;;;16.50;99.90;;;;;;5108437;28;20033;-77
2022/05/20 13:42:06;;;;;;;;;;;16.60;99.90;;;;;;5103079;28;19961;-77
2022/05/20 13:44:32;;;;;;;;;;;16.40;99.90;;;;;;5110050;28;20073;-76
2022/05/20 13:49:46;;;;;;;;;;;16.20;99.90;;;;;;5108389;28;20334;-77
2022/05/20 13:52:13;;;;;;;;;;;16.00;99.90;;;;;;5102859;28;19923;-78
2022/05/20 13:54:41;;;;;;;;;;;16.00;99.90;;;;;;5109374;28;19934;-79
2022/05/20 13:57:12;;;;;;;;;;;16.00;99.90;;;;;;5108470;28;19915;-80
2022/05/20 13:59:41;;;;;;;;;;;15.90;99.90;;;;;;5108638;28;19924;-76
2022/05/20 14:02:10;;;;;;;;;;;15.80;99.90;;;;;;5111323;28;20335;-77
2022/05/20 14:04:38;;;;;;;;;;;15.70;99.90;;;;;;5110656;28;19912;-77
2022/05/20 14:07:05;;;;;;;;;;;15.60;99.90;;;;;;5098640;28;19962;-77
2022/05/20 14:09:31;;;;;;;;;;;15.50;99.90;;;;;;5100343;28;19913;-76
2022/05/20 14:11:57;;;;;;;;;;;15.50;99.90;;;;;;5106555;28;19922;-74
2022/05/20 14:14:28;;;;;;;;;;;15.40;99.90;;;;;;5106275;28;19916;-75
2022/05/20 14:16:57;;;;;;;;;;;15.40;99.90;;;;;;5103978;28;19968;-75
2022/05/20 14:19:29;;;;;;;;;;;15.30;99.90;;;;;;5110876;28;20002;-74
2022/05/20 14:22:01;;;;;;;;;;;15.30;99.90;;;;;;5112094;27;20321;-76
2022/05/20 14:24:31;;;;;;;;;;;15.30;99.90;;;;;;5109449;28;20287;-74
2022/05/20 14:26:56;;;;;;;;;;;15.20;99.90;;;;;;5111718;28;19931;-77
2022/05/20 14:29:28;;;;;;;;;;;15.10;99.90;;;;;;5109881;28;19916;-76
2022/05/20 14:31:59;;;;;;;;;;;15.10;99.90;;;;;;5111851;28;20230;-75
2022/05/20 14:34:30;;;;;;;;;;;15.00;99.90;;;;;;5113039;28;20364;-75
2022/05/20 14:36:57;;;;;;;;;;;15.00;99.90;;;;;;5106197;28;19926;-75
2022/05/20 14:39:24;;;;;;;;;;;15.00;99.90;;;;;;5111002;28;19924;-75
2022/05/20 14:42:08;;;;;;;;;;;15.10;99.90;;;;;;5107969;28;19961;-77
2022/05/20 14:44:34;;;;;;;;;;;15.00;99.90;;;;;;5108539;28;19920;-77
2022/05/20 14:47:15;;;;;;;;;;;15.00;99.90;;;;;;5115314;28;19912;-78
2022/05/20 14:49:50;;;;;;;;;;;14.90;99.90;;;;;;5114138;28;19922;-78
2022/05/20 14:52:26;;;;;;;;;;;14.90;99.90;;;;;;5115890;28;20009;-75
2022/05/20 14:54:52;;;;;;;;;;;14.90;99.90;;;;;;5112761;28;19923;-75
2022/05/20 14:57:44;;;;;;;;;;;14.70;99.90;;;;;;5115470;28;20248;-75
2022/05/20 15:00:24;;;;;;;;;;;14.10;99.90;;;;;;5111258;28;20381;-76
2022/05/20 15:02:49;;;;;;;;;;;13.60;99.90;;;;;;5094210;28;19954;-79
2022/05/20 15:05:15;;;;;;;;;;;13.50;99.90;;;;;;5095015;28;19950;-77